臺北終端管制區 - 桃園五邊雷達席

METAR RCTP 190030Z 22007KT 6000 FEW012 BKN090 17/15 Q1022 NOSIG RMK A3019(R)=

站台狀態:Offline
最後更新:2019-01-19 08:30:01